Wynne, AR

10:43 AM CST on December 08, 2016 (GMT -0600)
South Edmonds - MacTown | | Change Station

Elev 207 ft 35.27 °N, 91.20 °W | Updated 6 seconds ago

Mostly Cloudy
Mostly Cloudy
34.5 °F
Feels Like 28 °F
N
8.7
Wind Variable Wind from North
Gusts 12.5 mph

Today
High -- | Low -- °F
--% Chance of Precip.
Yesterday
High -- | Low -- °F
Precip. -- in
Pressure 30.56 in
Visibility 10.0 miles
Clouds Clear
Windchill 28 °F
Dew Point 22 °F
Humidity 59%
Rainfall 0.00 in
Snow Depth Not available.
6:59 AM 4:50 PM
Waxing Gibbous, 65% visible
METAR KAWM 081553Z AUTO 36013G21KT 10SM CLR 01/M08 A3056 RMK AO2 SLP349 T00111078
Pressure 30.56 in
Visibility 10.0 miles
Clouds Clear
Windchill 28 °F
Dew Point 22 °F
Humidity 59%
Rainfall 0.00 in
Snow Depth Not available.
6:59 AM 4:50 PM
Waxing Gibbous, 65% visible
METAR KAWM 081553Z AUTO 36013G21KT 10SM CLR 01/M08 A3056 RMK AO2 SLP349 T00111078

10-Day Weather Forecast

Almanac

Astronomy

Dec. 08, 2016 Rise Set
Actual Time
Civil Twilight
Nautical Twilight
Astronomical Twilight
Moon
Length of Visible Light
Length of Day
Tomorrow will be .
, % of the Moon is Illuminated

Today's Extremes

State Highs State Lows

Community

WunderPhotos

Upload Photos

1,956,274 photos uploaded!

WunderBlog® & News

Nearby

Air Quality

  Air Quality AQ Index Pollutant
Not available.

Snow Depth

Station Depth Elevation

Earthquake Activity

City Distance Mag. Time & Date
Minimum magnitude displayed is 2.5.

Coastal Water Temperatures

Place Temperature

Stations

Nearby Weather Stations

Station Location Temp. Windchill Dew Point Humidity Wind Precip. Elev Updated Type
                   

Watches & Warnings

There are currently no watches in effect.